createdAt,value
2022-08-05T00:00:50.187Z,95.98
2022-08-05T00:01:49.706Z,96.38
2022-08-05T00:02:53.099Z,96.08
2022-08-05T00:03:46.971Z,96.28
2022-08-05T00:04:46.958Z,96.88
2022-08-05T00:06:06.654Z,96.17
2022-08-05T00:06:51.729Z,96.02
2022-08-05T00:08:00.111Z,96.92
2022-08-05T00:08:48.912Z,96.82
2022-08-05T00:09:46.899Z,97.32
2022-08-05T00:10:46.891Z,98.02
2022-08-05T00:11:48.636Z,97.13
2022-08-05T00:12:56.366Z,97.22
2022-08-05T00:13:52.823Z,98.48
2022-08-05T00:14:46.843Z,98.57
2022-08-05T00:15:54.948Z,98.17
2022-08-05T00:16:53.233Z,98.87
2022-08-05T00:17:46.811Z,99.37
2022-08-05T00:18:46.800Z,99.99
2022-08-05T00:20:02.585Z,99.48
2022-08-05T00:20:46.985Z,99.27
2022-08-05T00:21:46.771Z,99.99
2022-08-05T00:22:47.090Z,99.62
2022-08-05T00:23:53.623Z,99.99
2022-08-05T00:24:46.740Z,99.99
2022-08-05T00:25:53.932Z,99.99
2022-08-05T00:26:51.835Z,99.99
2022-08-05T00:27:46.756Z,99.99
2022-08-05T00:28:46.694Z,98.92
2022-08-05T00:29:46.683Z,98.77
2022-08-05T00:30:46.671Z,99.27
2022-08-05T00:32:10.882Z,99.99
2022-08-05T00:32:46.858Z,99.99
2022-08-05T00:34:54.966Z,99.99
2022-08-05T00:35:04.349Z,99.99
2022-08-05T00:36:14.770Z,99.99
2022-08-05T00:37:09.722Z,99.99
2022-08-05T00:37:53.284Z,99.78
2022-08-05T00:38:47.622Z,99.37
2022-08-05T00:39:58.011Z,99.57
2022-08-05T00:40:53.172Z,99.87
2022-08-05T00:42:31.735Z,99.99
2022-08-05T00:43:26.320Z,99.99
2022-08-05T00:44:30.995Z,99.99
2022-08-05T00:45:38.735Z,99.99
2022-08-05T00:46:36.911Z,99.99
2022-08-05T00:47:26.327Z,99.99
2022-08-05T00:48:27.647Z,99.99
2022-08-05T00:49:25.220Z,99.98
2022-08-05T00:50:25.704Z,99.63
2022-08-05T00:51:51.410Z,99.99
2022-08-05T00:52:28.166Z,99.53
2022-08-05T00:54:00.575Z,99.99
2022-08-05T00:54:28.140Z,99.23
2022-08-05T00:55:42.257Z,99.73
2022-08-05T00:56:26.181Z,99.33
2022-08-05T00:57:31.731Z,98.73
2022-08-05T00:58:27.159Z,98.43
2022-08-05T00:59:25.117Z,98.43
2022-08-05T01:00:26.018Z,98.52
2022-08-05T01:01:42.645Z,98.13
2022-08-05T01:02:26.126Z,98.22
2022-08-05T01:03:25.073Z,98.43
2022-08-05T01:04:29.891Z,97.52
2022-08-05T01:05:25.057Z,97.22
2022-08-05T01:06:32.336Z,97.72
2022-08-05T01:07:31.732Z,96.92
2022-08-05T01:08:31.620Z,96.82
2022-08-05T01:09:26.045Z,98.13
2022-08-05T01:10:25.770Z,96.82
2022-08-05T01:11:36.826Z,96.92
2022-08-05T01:12:29.822Z,97.52
2022-08-05T01:13:27.206Z,97.63
2022-08-05T01:14:27.904Z,97.72
2022-08-05T01:15:35.675Z,97.82
2022-08-05T01:16:26.468Z,97.63
2022-08-05T01:17:25.125Z,96.92
2022-08-05T01:18:24.917Z,98.13
2022-08-05T01:19:36.735Z,98.73
2022-08-05T01:20:27.080Z,97.63
2022-08-05T01:21:24.885Z,98.07
2022-08-05T01:22:28.007Z,98.87
2022-08-05T01:23:24.862Z,99.07
2022-08-05T01:24:32.424Z,99.07
2022-08-05T01:25:24.848Z,98.98
2022-08-05T01:26:26.183Z,99.48
2022-08-05T01:27:25.066Z,99.48
2022-08-05T01:28:24.812Z,99.98
2022-08-05T01:29:24.802Z,99.87
2022-08-05T01:30:34.777Z,99.48
2022-08-05T01:31:25.858Z,99.67
2022-08-05T01:32:24.775Z,99.87
2022-08-05T01:33:25.362Z,99.73
2022-08-05T01:34:26.694Z,99.53
2022-08-05T01:35:53.191Z,99.99
2022-08-05T01:36:27.901Z,99.99
2022-08-05T01:37:25.389Z,99.99
2022-08-05T01:38:29.221Z,99.99
2022-08-05T01:39:45.884Z,99.99
2022-08-05T01:40:31.727Z,99.99
2022-08-05T01:41:30.684Z,99.99
2022-08-05T01:42:24.662Z,99.99
2022-08-05T01:43:24.656Z,99.99
2022-08-05T01:44:24.764Z,99.73
2022-08-05T01:45:25.669Z,99.99
2022-08-05T01:46:42.984Z,99.63
2022-08-05T01:47:25.800Z,99.99
2022-08-05T01:48:25.635Z,99.99
2022-08-05T01:49:24.985Z,99.99
2022-08-05T01:50:28.747Z,99.99
2022-08-05T01:51:24.629Z,99.99
2022-08-05T01:52:24.560Z,99.99
2022-08-05T01:53:55.075Z,99.99
2022-08-05T01:54:27.150Z,99.99
2022-08-05T01:55:24.728Z,99.99
2022-08-05T01:58:12.249Z,99.99
2022-08-05T01:58:29.097Z,99.99
2022-08-05T01:58:40.339Z,99.99
2022-08-05T01:59:26.024Z,99.99
2022-08-05T02:00:30.738Z,99.99
2022-08-05T02:01:25.604Z,99.99
2022-08-05T02:02:28.538Z,99.99
2022-08-05T02:03:31.417Z,99.99
2022-08-05T02:04:25.490Z,99.99
2022-08-05T02:05:24.625Z,99.99
2022-08-05T02:06:37.824Z,99.99
2022-08-05T02:07:25.687Z,99.99
2022-08-05T02:08:29.613Z,99.99
2022-08-05T02:09:25.416Z,99.99
2022-08-05T02:10:28.407Z,99.99
2022-08-05T02:11:24.361Z,99.99
2022-08-05T02:12:26.345Z,99.99
2022-08-05T02:13:24.537Z,99.99
2022-08-05T02:14:59.060Z,99.99
2022-08-05T02:15:59.054Z,99.99
2022-08-05T02:16:59.048Z,99.99
2022-08-05T02:18:32.692Z,99.99
2022-08-05T02:19:00.072Z,99.99
2022-08-05T02:19:59.008Z,99.99
2022-08-05T02:20:59.076Z,99.99
2022-08-05T02:21:58.997Z,99.99
2022-08-05T02:22:59.778Z,99.99
2022-08-05T02:23:58.965Z,99.99
2022-08-05T02:25:00.154Z,99.99
2022-08-05T02:25:58.971Z,99.99
2022-08-05T02:26:59.134Z,99.99
2022-08-05T02:28:00.533Z,99.99
2022-08-05T02:28:59.118Z,99.99
2022-08-05T02:30:00.950Z,99.99
2022-08-05T02:30:58.889Z,99.99
2022-08-05T02:31:58.874Z,99.99
2022-08-05T02:32:59.902Z,99.99
2022-08-05T02:33:58.858Z,99.99
2022-08-05T02:34:58.847Z,99.99
2022-08-05T02:36:01.296Z,99.99
2022-08-05T02:36:59.024Z,99.99
2022-08-05T02:38:04.843Z,99.99
2022-08-05T02:38:58.883Z,99.99
2022-08-05T02:39:58.792Z,99.99
2022-08-05T02:40:58.785Z,99.99
2022-08-05T02:42:01.277Z,99.99
2022-08-05T02:42:59.167Z,99.99
2022-08-05T02:44:02.694Z,99.99
2022-08-05T02:44:59.771Z,99.99
2022-08-05T02:45:58.724Z,99.99
2022-08-05T02:47:00.893Z,99.99
2022-08-05T02:48:12.501Z,99.99
2022-08-05T02:48:59.734Z,99.99
2022-08-05T02:49:58.680Z,99.99
2022-08-05T02:50:58.672Z,99.99
2022-08-05T02:52:03.050Z,99.99
2022-08-05T02:52:58.854Z,99.99
2022-08-05T02:54:03.346Z,99.99
2022-08-05T02:54:58.633Z,99.99
2022-08-05T02:56:00.347Z,99.99
2022-08-05T02:56:58.606Z,99.99
2022-08-05T02:58:19.719Z,99.99
2022-08-05T02:58:59.628Z,99.99
2022-08-05T02:59:59.464Z,99.99
2022-08-05T03:00:58.565Z,99.99
2022-08-05T03:01:58.606Z,99.99
2022-08-05T03:02:58.540Z,99.99
2022-08-05T03:04:02.553Z,99.99
2022-08-05T03:05:00.519Z,99.99
2022-08-05T03:06:54.785Z,99.99
2022-08-05T03:06:59.690Z,99.99
2022-08-05T03:08:07.149Z,99.99
2022-08-05T03:08:59.564Z,99.99
2022-08-05T03:09:58.472Z,99.99
2022-08-05T03:11:41.212Z,99.99
2022-08-05T03:11:58.479Z,99.99
2022-08-05T03:13:27.607Z,99.99
2022-08-05T03:14:24.399Z,99.99
2022-08-05T03:15:24.385Z,99.99
2022-08-05T03:16:23.344Z,99.99
2022-08-05T03:17:23.679Z,99.99
2022-08-05T03:18:29.845Z,99.99
2022-08-05T03:19:33.738Z,99.99
2022-08-05T03:20:24.458Z,99.99
2022-08-05T03:21:23.294Z,99.99
2022-08-05T03:22:32.168Z,99.99
2022-08-05T03:23:30.318Z,99.99
2022-08-05T03:24:29.419Z,99.99
2022-08-05T03:25:33.533Z,99.99
2022-08-05T03:26:31.458Z,99.99
2022-08-05T03:27:57.921Z,99.99
2022-08-05T03:28:24.253Z,99.99
2022-08-05T03:29:23.205Z,99.99
2022-08-05T03:30:33.536Z,99.99
2022-08-05T03:31:56.083Z,99.99
2022-08-05T03:32:30.717Z,99.99
2022-08-05T03:33:24.207Z,99.99
2022-08-05T03:34:24.423Z,99.99
2022-08-05T03:35:23.150Z,99.99
2022-08-05T03:36:30.045Z,99.99
2022-08-05T03:37:24.375Z,99.99
2022-08-05T03:38:32.748Z,99.99
2022-08-05T03:39:27.102Z,99.99
2022-08-05T03:40:31.159Z,99.99
2022-08-05T03:41:24.118Z,99.99
2022-08-05T03:42:32.258Z,99.99
2022-08-05T03:44:08.368Z,99.99
2022-08-05T03:44:24.096Z,99.99
2022-08-05T03:45:23.679Z,99.99
2022-08-05T03:46:23.027Z,99.99
2022-08-05T03:47:23.279Z,99.99
2022-08-05T03:48:23.012Z,99.99
2022-08-05T03:49:24.119Z,99.99
2022-08-05T03:50:24.031Z,99.99
2022-08-05T03:52:48.516Z,99.99
2022-08-05T03:52:48.657Z,99.99
2022-08-05T03:55:51.765Z,99.99
2022-08-05T03:55:51.847Z,99.99
2022-08-05T03:56:10.358Z,99.99
2022-08-05T03:56:33.136Z,99.99
2022-08-05T03:57:41.334Z,99.99
2022-08-05T03:58:28.996Z,99.99
2022-08-05T03:59:23.043Z,99.99
2022-08-05T04:00:22.845Z,99.99
2022-08-05T04:01:22.855Z,99.99
2022-08-05T04:02:38.218Z,99.99
2022-08-05T04:03:28.641Z,99.99
2022-08-05T04:04:22.786Z,99.99
2022-08-05T04:05:23.002Z,99.99
2022-08-05T04:06:22.773Z,99.99
2022-08-05T04:07:24.921Z,99.99
2022-08-05T04:08:35.041Z,99.99
2022-08-05T04:09:26.326Z,99.99
2022-08-05T04:10:22.922Z,99.99
2022-08-05T04:11:22.728Z,99.99
2022-08-05T04:12:24.383Z,99.99
2022-08-05T04:13:22.889Z,99.99
2022-08-05T04:14:30.036Z,99.99
2022-08-05T04:15:24.871Z,99.99
2022-08-05T04:16:24.870Z,99.99
2022-08-05T04:17:22.858Z,99.99
2022-08-05T04:18:25.364Z,99.99
2022-08-05T04:19:22.631Z,99.99
2022-08-05T04:20:23.319Z,99.99
2022-08-05T04:22:08.358Z,99.99
2022-08-05T04:22:22.591Z,99.99
2022-08-05T04:24:05.452Z,99.99
2022-08-05T04:24:22.907Z,99.99
2022-08-05T04:25:38.480Z,99.99
2022-08-05T04:26:23.783Z,99.99
2022-08-05T04:27:42.206Z,99.99
2022-08-05T04:28:30.974Z,99.99
2022-08-05T04:29:23.558Z,99.99
2022-08-05T04:30:22.505Z,99.99
2022-08-05T04:31:22.498Z,99.99
2022-08-05T04:32:31.222Z,99.99
2022-08-05T04:33:54.363Z,99.99
2022-08-05T04:34:32.658Z,99.99
2022-08-05T04:35:23.492Z,99.99
2022-08-05T04:36:46.089Z,99.99
2022-08-05T04:38:00.945Z,99.99
2022-08-05T04:38:39.448Z,99.99
2022-08-05T04:39:58.145Z,99.99
2022-08-05T04:40:58.127Z,99.99
2022-08-05T04:41:58.384Z,99.99
2022-08-05T04:42:58.105Z,99.99
2022-08-05T04:43:58.094Z,99.99
2022-08-05T04:44:58.079Z,99.99
2022-08-05T04:46:04.078Z,99.99
2022-08-05T04:46:58.445Z,99.99
2022-08-05T04:47:58.049Z,99.99
2022-08-05T04:48:58.851Z,99.99
2022-08-05T04:50:11.058Z,99.99
2022-08-05T04:51:03.839Z,99.99
2022-08-05T04:52:00.272Z,99.99
2022-08-05T04:52:58.004Z,99.99
2022-08-05T04:53:58.186Z,99.99
2022-08-05T04:54:57.985Z,99.99
2022-08-05T04:56:33.874Z,99.99
2022-08-05T04:56:59.047Z,99.99
2022-08-05T04:58:03.954Z,99.99
2022-08-05T04:58:57.940Z,99.99
2022-08-05T04:59:58.350Z,99.99
2022-08-05T05:00:57.994Z,99.99
2022-08-05T05:02:07.254Z,99.99
2022-08-05T05:03:03.144Z,99.99
2022-08-05T05:03:57.890Z,99.99
2022-08-05T05:05:02.763Z,99.99
2022-08-05T05:06:38.751Z,99.99
2022-08-05T05:06:58.887Z,99.99
2022-08-05T05:08:00.880Z,99.99
2022-08-05T05:08:57.833Z,99.99
2022-08-05T05:09:57.818Z,99.99
2022-08-05T05:10:57.809Z,99.99
2022-08-05T05:12:03.808Z,99.99
2022-08-05T05:12:57.849Z,99.99
2022-08-05T05:13:57.782Z,99.99
2022-08-05T05:14:57.765Z,99.99
2022-08-05T05:16:06.114Z,99.99
2022-08-05T05:16:57.752Z,99.99
2022-08-05T05:17:58.121Z,99.99
2022-08-05T05:19:18.962Z,99.99
2022-08-05T05:19:58.750Z,99.99
2022-08-05T05:20:58.505Z,99.99
2022-08-05T05:21:57.691Z,99.99
2022-08-05T05:23:02.143Z,99.99
2022-08-05T05:24:03.895Z,99.99
2022-08-05T05:25:00.319Z,99.99
2022-08-05T05:25:57.648Z,99.99
2022-08-05T05:26:57.640Z,99.99
2022-08-05T05:27:57.634Z,99.99
2022-08-05T05:28:57.618Z,99.99
2022-08-05T05:30:03.917Z,99.99
2022-08-05T05:30:58.835Z,99.99
2022-08-05T05:31:57.795Z,99.99
2022-08-05T05:33:00.658Z,99.99
2022-08-05T05:34:01.698Z,99.99
2022-08-05T05:34:57.554Z,99.99
2022-08-05T05:35:57.551Z,99.99
2022-08-05T05:36:57.542Z,99.99
2022-08-05T05:37:59.726Z,99.99
2022-08-05T05:38:57.633Z,99.99
2022-08-05T05:39:57.705Z,99.99
2022-08-05T05:40:57.491Z,99.99
2022-08-05T05:41:57.481Z,99.99
2022-08-05T05:42:57.477Z,99.99
2022-08-05T05:44:00.441Z,99.99
2022-08-05T05:45:03.466Z,99.99
2022-08-05T05:45:57.442Z,99.99
2022-08-05T05:46:58.018Z,99.99
2022-08-05T05:48:06.795Z,99.99
2022-08-05T05:48:57.408Z,99.99
2022-08-05T05:50:01.389Z,99.99
2022-08-05T05:50:57.386Z,99.99
2022-08-05T05:51:57.373Z,99.99
2022-08-05T05:53:03.371Z,99.99
2022-08-05T05:53:59.918Z,99.99
2022-08-05T05:54:57.343Z,99.99
2022-08-05T05:56:01.412Z,99.99
2022-08-05T05:56:57.327Z,99.99
2022-08-05T05:57:57.311Z,99.99
2022-08-05T05:58:57.303Z,99.99
2022-08-05T05:59:58.357Z,99.99
2022-08-05T06:00:57.280Z,99.99
2022-08-05T06:01:58.188Z,99.99
2022-08-05T06:02:57.265Z,99.99
2022-08-05T06:04:02.184Z,99.99
2022-08-05T06:04:58.397Z,99.99
2022-08-05T06:05:57.228Z,99.99
2022-08-05T06:07:03.234Z,99.99
2022-08-05T06:08:01.397Z,99.99
2022-08-05T06:08:57.208Z,99.99
2022-08-05T06:10:00.557Z,99.99
2022-08-05T06:10:57.175Z,99.99
2022-08-05T06:12:01.958Z,99.99
2022-08-05T06:12:57.153Z,99.99
2022-08-05T06:13:57.147Z,99.99
2022-08-05T06:14:57.133Z,99.99
2022-08-05T06:16:30.014Z,99.99
2022-08-05T06:16:58.490Z,99.99
2022-08-05T06:17:57.441Z,99.99
2022-08-05T06:18:57.097Z,99.99
2022-08-05T06:20:03.105Z,99.99
2022-08-05T06:20:57.076Z,99.99
2022-08-05T06:21:57.068Z,99.99
2022-08-05T06:22:57.056Z,99.99
2022-08-05T06:23:57.054Z,99.99
2022-08-05T06:24:57.039Z,99.99
2022-08-05T06:26:13.436Z,99.99
2022-08-05T06:26:58.069Z,99.99
2022-08-05T06:28:10.997Z,99.99
2022-08-05T06:28:58.030Z,99.99
2022-08-05T06:30:03.983Z,99.99
2022-08-05T06:30:58.027Z,99.99
2022-08-05T06:31:56.957Z,99.99
2022-08-05T06:32:56.945Z,99.99
2022-08-05T06:34:07.550Z,99.99
2022-08-05T06:35:05.935Z,99.99
2022-08-05T06:36:07.642Z,99.99
2022-08-05T06:37:03.952Z,99.99
2022-08-05T06:37:59.469Z,99.99
2022-08-05T06:38:56.981Z,99.99
2022-08-05T06:39:56.878Z,99.99
2022-08-05T06:40:57.114Z,99.99
2022-08-05T06:41:57.381Z,99.99
2022-08-05T06:42:56.835Z,99.99
2022-08-05T06:44:00.342Z,99.99
2022-08-05T06:44:56.822Z,99.99
2022-08-05T06:46:03.796Z,99.99
2022-08-05T06:46:57.839Z,99.99
2022-08-05T06:48:37.078Z,99.99
2022-08-05T06:48:59.197Z,99.99
2022-08-05T06:50:00.269Z,99.99
2022-08-05T06:50:56.993Z,99.99
2022-08-05T06:51:56.753Z,99.99
2022-08-05T06:53:03.465Z,99.99
2022-08-05T06:53:56.761Z,99.99
2022-08-05T06:54:56.718Z,99.99
2022-08-05T06:55:56.700Z,99.99
2022-08-05T06:58:03.158Z,99.99
2022-08-05T06:58:11.524Z,99.99
2022-08-05T06:58:57.714Z,99.99
2022-08-05T06:59:58.288Z,99.99
2022-08-05T07:00:56.688Z,99.99
2022-08-05T07:01:56.638Z,99.99
2022-08-05T07:02:56.625Z,99.99
2022-08-05T07:04:02.987Z,99.99
2022-08-05T07:04:56.610Z,99.99
2022-08-05T07:05:56.610Z,99.99
2022-08-05T07:06:56.595Z,99.99
2022-08-05T07:07:56.572Z,99.99
2022-08-05T07:08:56.573Z,99.99
2022-08-05T07:09:58.529Z,99.99
2022-08-05T07:11:02.553Z,99.99
2022-08-05T07:11:56.533Z,99.99
2022-08-05T07:12:56.527Z,99.99
2022-08-05T07:13:58.681Z,99.99
2022-08-05T07:14:56.501Z,99.99
2022-08-05T07:16:01.983Z,99.99
2022-08-05T07:18:01.615Z,99.99
2022-08-05T07:18:07.331Z,99.99
2022-08-05T07:18:58.659Z,99.99
2022-08-05T07:20:32.116Z,99.99
2022-08-05T07:20:57.479Z,99.99
2022-08-05T07:21:59.973Z,99.99
2022-08-05T07:22:56.414Z,99.99
2022-08-05T07:24:31.098Z,99.99
2022-08-05T07:25:55.102Z,99.99
2022-08-05T07:26:31.063Z,99.99
2022-08-05T07:27:58.180Z,99.99
2022-08-05T07:28:32.083Z,99.99
2022-08-05T07:30:27.815Z,99.99
2022-08-05T07:30:39.740Z,99.99
2022-08-05T07:31:53.980Z,99.99
2022-08-05T07:32:31.005Z,99.99
2022-08-05T07:33:36.867Z,99.99
2022-08-05T07:34:32.026Z,99.99
2022-08-05T07:36:03.791Z,99.99
2022-08-05T07:36:32.003Z,99.99
2022-08-05T07:37:37.615Z,99.99
2022-08-05T07:38:43.242Z,99.99
2022-08-05T07:40:26.571Z,99.99
2022-08-05T07:40:33.396Z,99.99
2022-08-05T07:42:07.927Z,99.99
2022-08-05T07:42:34.022Z,99.99
2022-08-05T07:43:32.901Z,99.99
2022-08-05T07:44:30.889Z,99.99
2022-08-05T07:45:56.712Z,99.99
2022-08-05T07:46:31.898Z,99.99
2022-08-05T07:47:42.022Z,99.99
2022-08-05T07:49:01.499Z,99.99
2022-08-05T07:49:31.874Z,99.99
2022-08-05T07:50:32.582Z,99.99
2022-08-05T07:51:40.310Z,99.99
2022-08-05T07:52:33.894Z,99.99
2022-08-05T07:53:37.032Z,99.99
2022-08-05T07:54:33.632Z,99.99
2022-08-05T07:56:04.756Z,99.99
2022-08-05T07:57:00.412Z,99.99
2022-08-05T07:57:46.056Z,99.99
2022-08-05T07:58:57.568Z,99.99
2022-08-05T07:59:40.183Z,99.99
2022-08-05T08:00:31.743Z,99.99
2022-08-05T08:01:30.729Z,99.99
2022-08-05T08:03:13.855Z,99.99
2022-08-05T08:03:44.657Z,99.99
2022-08-05T08:04:38.368Z,99.99
2022-08-05T08:05:30.659Z,99.99
2022-08-05T08:06:30.643Z,99.99
2022-08-05T08:07:58.833Z,99.99
2022-08-05T08:08:30.626Z,99.99
2022-08-05T08:09:30.613Z,99.99
2022-08-05T08:10:30.600Z,99.99
2022-08-05T08:11:47.563Z,99.99
2022-08-05T08:12:48.884Z,99.99
2022-08-05T08:13:31.610Z,99.99
2022-08-05T08:14:32.565Z,99.99
2022-08-05T08:16:33.813Z,99.99
2022-08-05T08:16:35.252Z,99.99
2022-08-05T08:18:14.752Z,99.99
2022-08-05T08:20:21.495Z,99.99
2022-08-05T08:20:42.950Z,99.99
2022-08-05T08:21:15.986Z,99.99
2022-08-05T08:22:15.868Z,99.99
2022-08-05T08:24:02.938Z,99.99
2022-08-05T08:24:15.281Z,99.99
2022-08-05T08:25:16.358Z,99.99
2022-08-05T08:26:14.222Z,99.99
2022-08-05T08:27:20.699Z,99.99
2022-08-05T08:28:18.954Z,99.99
2022-08-05T08:30:04.258Z,99.99
2022-08-05T08:30:29.523Z,99.99
2022-08-05T08:31:17.554Z,99.99
2022-08-05T08:32:14.156Z,99.99
2022-08-05T08:33:14.509Z,98.44
2022-08-05T08:34:14.143Z,97.34
2022-08-05T08:35:14.153Z,98.84
2022-08-05T08:36:52.448Z,98.00
2022-08-05T08:37:15.142Z,97.05
2022-08-05T08:38:16.489Z,97.21
2022-08-05T08:39:15.862Z,93.82
2022-08-05T08:40:20.085Z,96.66
2022-08-05T08:41:14.289Z,96.66
2022-08-05T08:42:33.935Z,94.17
2022-08-05T08:45:20.133Z,93.42
2022-08-05T08:45:21.421Z,94.56
2022-08-05T08:45:22.491Z,96.30
2022-08-05T08:46:15.568Z,97.10
2022-08-05T08:47:47.699Z,97.40
2022-08-05T08:48:41.581Z,97.00
2022-08-05T08:50:03.880Z,97.94
2022-08-05T08:50:31.131Z,96.99
2022-08-05T08:52:03.097Z,98.34
2022-08-05T08:52:15.088Z,98.98
2022-08-05T08:53:13.936Z,99.99
2022-08-05T08:54:20.130Z,99.99
2022-08-05T08:55:13.912Z,99.99
2022-08-05T08:56:13.901Z,99.63
2022-08-05T08:57:13.889Z,99.99
2022-08-05T08:58:13.878Z,99.99
2022-08-05T08:59:14.911Z,99.99
2022-08-05T09:00:15.646Z,99.99
2022-08-05T09:01:16.263Z,99.99
2022-08-05T09:02:13.830Z,99.99
2022-08-05T09:03:16.240Z,99.99
2022-08-05T09:04:13.837Z,99.99
2022-08-05T09:05:17.580Z,99.99
2022-08-05T09:06:21.414Z,99.99
2022-08-05T09:07:19.576Z,99.73
2022-08-05T09:08:14.803Z,99.89
2022-08-05T09:09:13.763Z,99.99
2022-08-05T09:10:13.744Z,99.98
2022-08-05T09:11:52.141Z,98.59
2022-08-05T09:12:55.457Z,99.09
2022-08-05T09:14:01.233Z,96.23
2022-08-05T09:14:57.114Z,97.83
2022-08-05T09:15:50.384Z,99.38
2022-08-05T09:16:54.376Z,98.13
2022-08-05T09:17:49.490Z,99.02
2022-08-05T09:18:48.347Z,99.99
2022-08-05T09:20:01.921Z,99.99
2022-08-05T09:20:55.374Z,97.74
2022-08-05T09:22:17.770Z,99.39
2022-08-05T09:22:51.925Z,96.09
2022-08-05T09:23:48.293Z,96.55
2022-08-05T09:24:48.483Z,97.00
2022-08-05T09:26:02.044Z,95.41
2022-08-05T09:26:51.756Z,94.37
2022-08-05T09:28:05.053Z,92.95
2022-08-05T09:28:55.439Z,89.37
2022-08-05T09:29:48.292Z,85.72
2022-08-05T09:30:48.230Z,84.24
2022-08-05T09:32:41.787Z,87.15
2022-08-05T09:32:48.198Z,83.27
2022-08-05T09:33:48.187Z,86.99
2022-08-05T09:34:54.183Z,87.59
2022-08-05T09:35:48.167Z,85.08
2022-08-05T09:36:54.978Z,82.91
2022-08-05T09:38:17.977Z,82.01
2022-08-05T09:38:55.183Z,82.98
2022-08-05T09:39:52.236Z,79.55
2022-08-05T09:40:53.870Z,75.04
2022-08-05T09:41:53.924Z,74.19
2022-08-05T09:42:48.292Z,72.43
2022-08-05T09:43:49.406Z,74.90
2022-08-05T09:44:49.331Z,75.96
2022-08-05T09:46:06.465Z,78.90
2022-08-05T09:46:51.772Z,82.63
2022-08-05T09:47:56.280Z,82.25
2022-08-05T09:49:06.570Z,80.59
2022-08-05T09:50:01.375Z,82.95
2022-08-05T09:50:55.054Z,82.75
2022-08-05T09:51:50.070Z,88.01
2022-08-05T09:52:47.997Z,88.32
2022-08-05T09:53:53.437Z,86.05
2022-08-05T09:54:49.006Z,84.37
2022-08-05T09:55:58.278Z,75.53
2022-08-05T09:56:51.606Z,75.85
2022-08-05T09:57:48.150Z,75.16
2022-08-05T09:58:50.348Z,77.36
2022-08-05T09:59:47.928Z,77.44
2022-08-05T10:00:47.935Z,79.43
2022-08-05T10:01:57.815Z,80.56
2022-08-05T10:02:48.006Z,81.28
2022-08-05T10:03:58.728Z,77.00
2022-08-05T10:04:49.872Z,73.00
2022-08-05T10:05:47.861Z,71.05
2022-08-05T10:06:54.942Z,72.12
2022-08-05T10:08:34.719Z,72.87
2022-08-05T10:08:53.750Z,61.21
2022-08-05T10:09:47.819Z,70.12
2022-08-05T10:10:54.378Z,73.03
2022-08-05T10:11:47.804Z,70.19
2022-08-05T10:12:49.208Z,73.60
2022-08-05T10:13:49.835Z,67.87
2022-08-05T10:14:47.779Z,71.90
2022-08-05T10:15:47.764Z,69.28
2022-08-05T10:16:52.768Z,72.83
2022-08-05T10:17:56.703Z,70.66
2022-08-05T10:18:48.774Z,74.34
2022-08-05T10:20:03.933Z,75.28
2022-08-05T10:20:48.852Z,69.18
2022-08-05T10:21:47.705Z,74.59
2022-08-05T10:22:50.851Z,73.15
2022-08-05T10:23:56.195Z,74.72
2022-08-05T10:24:49.677Z,65.47
2022-08-05T10:25:47.671Z,71.35
2022-08-05T10:26:51.637Z,73.88
2022-08-05T10:28:13.272Z,77.18
2022-08-05T10:28:50.955Z,79.90
2022-08-05T10:31:20.356Z,76.94
2022-08-05T10:32:48.964Z,74.12
2022-08-05T10:32:54.505Z,78.14
2022-08-05T10:33:01.893Z,79.63
2022-08-05T10:33:54.238Z,78.93
2022-08-05T10:34:48.617Z,76.76
2022-08-05T10:35:59.073Z,75.42
2022-08-05T10:36:49.555Z,74.46
2022-08-05T10:37:47.544Z,79.41
2022-08-05T10:38:47.535Z,76.51
2022-08-05T10:40:03.097Z,79.88
2022-08-05T10:40:49.066Z,81.34
2022-08-05T10:41:47.508Z,77.61
2022-08-05T10:42:47.492Z,84.39
2022-08-05T10:43:47.487Z,84.46
2022-08-05T10:44:47.474Z,78.25
2022-08-05T10:45:47.471Z,82.91
2022-08-05T10:46:51.045Z,83.80
2022-08-05T10:47:56.205Z,86.09
2022-08-05T10:48:58.861Z,79.68
2022-08-05T10:49:48.966Z,79.63
2022-08-05T10:50:47.413Z,84.99
2022-08-05T10:51:53.239Z,85.09
2022-08-05T10:52:49.766Z,78.71
2022-08-05T10:53:47.589Z,77.45
2022-08-05T10:54:56.335Z,83.81
2022-08-05T10:56:03.573Z,80.52
2022-08-05T10:56:49.457Z,77.27
2022-08-05T10:57:47.351Z,75.60
2022-08-05T10:58:48.611Z,78.50
2022-08-05T11:00:03.612Z,78.11
2022-08-05T11:00:47.321Z,77.03
2022-08-05T11:01:55.128Z,75.83
2022-08-05T11:02:50.474Z,73.19
2022-08-05T11:03:47.387Z,75.89
2022-08-05T11:04:47.285Z,70.03
2022-08-05T11:05:49.318Z,72.07
2022-08-05T11:06:47.253Z,76.08
2022-08-05T11:08:01.750Z,72.90
2022-08-05T11:08:48.270Z,75.67
2022-08-05T11:09:47.430Z,78.68
2022-08-05T11:10:50.009Z,81.98
2022-08-05T11:11:53.581Z,80.07
2022-08-05T11:12:50.335Z,82.06
2022-08-05T11:13:55.039Z,84.27
2022-08-05T11:15:11.769Z,83.52
2022-08-05T11:16:00.476Z,82.08
2022-08-05T11:16:57.942Z,81.32
2022-08-05T11:17:57.150Z,83.74
2022-08-05T11:18:54.180Z,85.71
2022-08-05T11:20:11.466Z,84.16
2022-08-05T11:20:48.331Z,88.37
2022-08-05T11:21:49.341Z,87.23
2022-08-05T11:22:49.886Z,89.36
2022-08-05T11:24:04.140Z,90.35
2022-08-05T11:24:50.674Z,89.25
2022-08-05T11:26:05.895Z,92.08
2022-08-05T11:26:49.543Z,90.48
2022-08-05T11:27:51.693Z,91.02
2022-08-05T11:28:48.068Z,89.37
2022-08-05T11:29:53.038Z,94.06
2022-08-05T11:30:47.018Z,92.07
2022-08-05T11:31:57.801Z,94.61
2022-08-05T11:32:48.031Z,93.82
2022-08-05T11:33:47.891Z,89.63
2022-08-05T11:34:51.051Z,91.32
2022-08-05T11:36:07.740Z,90.72
2022-08-05T11:36:51.392Z,94.61
2022-08-05T11:38:30.741Z,91.82
2022-08-05T11:38:51.731Z,93.71
2022-08-05T11:39:47.977Z,93.71
2022-08-05T11:40:46.909Z,90.67
2022-08-05T11:42:01.580Z,94.91
2022-08-05T11:42:46.891Z,93.96
2022-08-05T11:44:06.574Z,93.36
2022-08-05T11:44:54.055Z,92.76
2022-08-05T11:46:27.345Z,95.06
2022-08-05T11:47:09.422Z,94.26
2022-08-05T11:47:49.867Z,94.96
2022-08-05T11:48:46.826Z,94.86
2022-08-05T11:49:51.189Z,94.86
2022-08-05T11:50:46.807Z,93.51
2022-08-05T11:51:49.548Z,95.60
2022-08-05T11:52:49.499Z,93.96
2022-08-05T11:53:52.785Z,95.36
2022-08-05T11:54:48.455Z,95.66
2022-08-05T11:55:47.792Z,94.36
2022-08-05T11:56:50.034Z,94.12
2022-08-05T11:58:10.566Z,92.98
2022-08-05T11:58:53.117Z,92.13
2022-08-05T11:59:50.045Z,92.29
2022-08-05T12:00:47.077Z,91.94
2022-08-05T12:01:46.701Z,89.41
2022-08-05T12:02:46.766Z,87.93
2022-08-05T12:03:55.997Z,83.72
2022-08-05T12:04:59.260Z,85.63
2022-08-05T12:05:47.689Z,84.53
2022-08-05T12:06:48.718Z,81.58
2022-08-05T12:08:08.297Z,79.92
2022-08-05T12:08:49.978Z,77.49
2022-08-05T12:09:53.146Z,78.08
2022-08-05T12:10:48.692Z,78.91
2022-08-05T12:11:46.599Z,75.62
2022-08-05T12:12:59.615Z,80.61
2022-08-05T12:13:48.889Z,81.01
2022-08-05T12:14:47.232Z,78.71
2022-08-05T12:15:50.261Z,80.59
2022-08-05T12:16:46.539Z,83.36
2022-08-05T12:18:02.502Z,82.00
2022-08-05T12:18:52.484Z,80.69
2022-08-05T12:20:27.779Z,75.49
2022-08-05T12:20:47.835Z,71.28
2022-08-05T12:21:46.491Z,75.75
2022-08-05T12:22:46.482Z,74.53
2022-08-05T12:23:46.472Z,75.62
2022-08-05T12:24:49.713Z,72.56
2022-08-05T12:25:46.450Z,73.65
2022-08-05T12:26:46.450Z,67.60
2022-08-05T12:27:53.140Z,67.70
2022-08-05T12:28:47.464Z,66.76
2022-08-05T12:29:46.417Z,64.83
2022-08-05T12:30:46.415Z,68.13
2022-08-05T12:31:53.246Z,69.34
2022-08-05T12:32:46.380Z,66.85
2022-08-05T12:33:46.374Z,67.34
2022-08-05T12:34:46.360Z,69.51
2022-08-05T12:35:52.409Z,66.56
2022-08-05T12:36:46.386Z,69.48
2022-08-05T12:37:46.336Z,63.54
2022-08-05T12:38:46.324Z,68.07
2022-08-05T12:39:51.036Z,67.64
2022-08-05T12:40:46.308Z,70.33
2022-08-05T12:41:46.296Z,67.08
2022-08-05T12:42:46.283Z,60.87
2022-08-05T12:43:46.474Z,65.06
2022-08-05T12:44:47.567Z,62.44
2022-08-05T12:45:48.350Z,62.43
2022-08-05T12:46:46.243Z,68.46
2022-08-05T12:48:01.469Z,64.56
2022-08-05T12:48:47.262Z,67.99
2022-08-05T12:50:02.944Z,66.79
2022-08-05T12:50:47.243Z,62.06
2022-08-05T12:52:13.080Z,63.46
2022-08-05T12:52:53.242Z,64.41
2022-08-05T12:53:47.410Z,62.84
2022-08-05T12:54:47.208Z,64.70
2022-08-05T12:55:52.167Z,59.68
2022-08-05T12:56:46.149Z,60.49